sensor_id;sensor_type;location;lat;lon;timestamp;P1;durP1;ratioP1;P2;durP2;ratioP2
79074;SDS011;68476;42.710;23.388;2023-08-07T00:00:22;2.80;;;1.85;;
79074;SDS011;68476;42.710;23.388;2023-08-07T00:02:47;2.42;;;1.83;;
79074;SDS011;68476;42.710;23.388;2023-08-07T00:05:13;4.05;;;2.10;;
79074;SDS011;68476;42.710;23.388;2023-08-07T00:07:38;3.00;;;2.05;;
79074;SDS011;68476;42.710;23.388;2023-08-07T00:10:04;3.33;;;1.90;;
79074;SDS011;68476;42.710;23.388;2023-08-07T00:12:30;3.85;;;1.92;;
79074;SDS011;68476;42.710;23.388;2023-08-07T00:14:55;2.50;;;1.80;;
79074;SDS011;68476;42.710;23.388;2023-08-07T00:17:21;4.95;;;1.90;;
79074;SDS011;68476;42.710;23.388;2023-08-07T00:19:46;2.50;;;1.80;;
79074;SDS011;68476;42.710;23.388;2023-08-07T00:22:12;2.50;;;1.77;;
79074;SDS011;68476;42.710;23.388;2023-08-07T00:24:37;2.70;;;1.90;;
79074;SDS011;68476;42.710;23.388;2023-08-07T00:27:02;2.58;;;1.92;;
79074;SDS011;68476;42.710;23.388;2023-08-07T00:29:28;2.35;;;1.77;;
79074;SDS011;68476;42.710;23.388;2023-08-07T00:31:53;3.65;;;2.00;;
79074;SDS011;68476;42.710;23.388;2023-08-07T00:34:19;2.55;;;1.83;;
79074;SDS011;68476;42.710;23.388;2023-08-07T00:36:44;2.50;;;2.10;;
79074;SDS011;68476;42.710;23.388;2023-08-07T00:39:10;2.67;;;2.00;;
79074;SDS011;68476;42.710;23.388;2023-08-07T00:41:35;2.90;;;2.15;;
79074;SDS011;68476;42.710;23.388;2023-08-07T00:44:01;2.95;;;1.90;;
79074;SDS011;68476;42.710;23.388;2023-08-07T00:46:26;2.80;;;2.00;;
79074;SDS011;68476;42.710;23.388;2023-08-07T00:48:54;3.03;;;2.20;;
79074;SDS011;68476;42.710;23.388;2023-08-07T00:51:20;3.40;;;2.40;;
79074;SDS011;68476;42.710;23.388;2023-08-07T00:53:46;3.33;;;2.20;;
79074;SDS011;68476;42.710;23.388;2023-08-07T00:56:13;2.72;;;2.00;;
79074;SDS011;68476;42.710;23.388;2023-08-07T00:58:39;4.00;;;2.40;;
79074;SDS011;68476;42.710;23.388;2023-08-07T01:01:05;3.38;;;2.30;;
79074;SDS011;68476;42.710;23.388;2023-08-07T01:03:31;4.35;;;2.38;;
79074;SDS011;68476;42.710;23.388;2023-08-07T01:05:56;3.83;;;2.40;;
79074;SDS011;68476;42.710;23.388;2023-08-07T01:08:22;3.22;;;2.33;;
79074;SDS011;68476;42.710;23.388;2023-08-07T01:13:23;4.03;;;2.53;;
79074;SDS011;68476;42.710;23.388;2023-08-07T01:15:55;4.40;;;2.50;;
79074;SDS011;68476;42.710;23.388;2023-08-07T01:18:23;3.50;;;2.70;;
79074;SDS011;68476;42.710;23.388;2023-08-07T01:20:49;3.72;;;2.58;;
79074;SDS011;68476;42.710;23.388;2023-08-07T01:23:15;3.85;;;2.80;;
79074;SDS011;68476;42.710;23.388;2023-08-07T01:25:40;3.75;;;2.75;;
79074;SDS011;68476;42.710;23.388;2023-08-07T01:28:08;4.35;;;3.15;;
79074;SDS011;68476;42.710;23.388;2023-08-07T01:30:51;3.72;;;2.88;;
79074;SDS011;68476;42.710;23.388;2023-08-07T01:33:30;4.20;;;3.22;;
79074;SDS011;68476;42.710;23.388;2023-08-07T01:35:58;6.18;;;3.70;;
79074;SDS011;68476;42.710;23.388;2023-08-07T01:38:27;5.35;;;3.67;;
79074;SDS011;68476;42.710;23.388;2023-08-07T01:40:54;5.05;;;3.65;;
79074;SDS011;68476;42.710;23.388;2023-08-07T01:43:21;4.97;;;3.42;;
79074;SDS011;68476;42.710;23.388;2023-08-07T01:45:47;6.45;;;3.53;;
79074;SDS011;68476;42.710;23.388;2023-08-07T01:48:12;6.22;;;4.00;;
79074;SDS011;68476;42.710;23.388;2023-08-07T01:50:38;4.15;;;3.70;;
79074;SDS011;68476;42.710;23.388;2023-08-07T01:53:04;3.85;;;3.30;;
79074;SDS011;68476;42.710;23.388;2023-08-07T01:55:30;4.57;;;3.47;;
79074;SDS011;68476;42.710;23.388;2023-08-07T01:57:56;4.18;;;3.40;;
79074;SDS011;68476;42.710;23.388;2023-08-07T02:00:21;4.30;;;3.42;;
79074;SDS011;68476;42.710;23.388;2023-08-07T02:02:47;4.50;;;3.40;;
79074;SDS011;68476;42.710;23.388;2023-08-07T02:05:13;3.80;;;3.13;;
79074;SDS011;68476;42.710;23.388;2023-08-07T02:07:38;3.75;;;3.10;;
79074;SDS011;68476;42.710;23.388;2023-08-07T02:10:04;4.35;;;3.35;;
79074;SDS011;68476;42.710;23.388;2023-08-07T02:12:30;3.95;;;3.10;;
79074;SDS011;68476;42.710;23.388;2023-08-07T02:14:57;6.07;;;3.30;;
79074;SDS011;68476;42.710;23.388;2023-08-07T02:17:24;4.13;;;3.40;;
79074;SDS011;68476;42.710;23.388;2023-08-07T02:19:50;4.15;;;3.40;;
79074;SDS011;68476;42.710;23.388;2023-08-07T02:22:15;5.68;;;3.40;;
79074;SDS011;68476;42.710;23.388;2023-08-07T02:24:41;4.68;;;3.58;;
79074;SDS011;68476;42.710;23.388;2023-08-07T02:27:06;4.85;;;3.95;;
79074;SDS011;68476;42.710;23.388;2023-08-07T02:29:32;5.60;;;3.65;;
79074;SDS011;68476;42.710;23.388;2023-08-07T02:31:59;5.35;;;3.53;;
79074;SDS011;68476;42.710;23.388;2023-08-07T02:34:26;5.15;;;4.03;;
79074;SDS011;68476;42.710;23.388;2023-08-07T02:36:52;5.20;;;4.60;;
79074;SDS011;68476;42.710;23.388;2023-08-07T02:39:17;4.95;;;4.15;;
79074;SDS011;68476;42.710;23.388;2023-08-07T02:41:42;4.70;;;3.97;;
79074;SDS011;68476;42.710;23.388;2023-08-07T02:44:08;4.93;;;3.97;;
79074;SDS011;68476;42.710;23.388;2023-08-07T02:46:33;5.05;;;4.28;;
79074;SDS011;68476;42.710;23.388;2023-08-07T02:49:01;5.22;;;4.32;;
79074;SDS011;68476;42.710;23.388;2023-08-07T02:51:26;4.57;;;3.80;;
79074;SDS011;68476;42.710;23.388;2023-08-07T02:53:52;4.75;;;3.95;;
79074;SDS011;68476;42.710;23.388;2023-08-07T02:56:17;5.50;;;4.50;;
79074;SDS011;68476;42.710;23.388;2023-08-07T02:58:42;5.00;;;3.97;;
79074;SDS011;68476;42.710;23.388;2023-08-07T03:01:08;4.82;;;4.05;;
79074;SDS011;68476;42.710;23.388;2023-08-07T03:03:33;5.00;;;4.07;;
79074;SDS011;68476;42.710;23.388;2023-08-07T03:05:59;5.25;;;4.28;;
79074;SDS011;68476;42.710;23.388;2023-08-07T03:08:25;5.47;;;4.45;;
79074;SDS011;68476;42.710;23.388;2023-08-07T03:10:54;5.88;;;4.40;;
79074;SDS011;68476;42.710;23.388;2023-08-07T03:13:21;5.93;;;4.80;;
79074;SDS011;68476;42.710;23.388;2023-08-07T03:15:47;8.48;;;5.10;;
79074;SDS011;68476;42.710;23.388;2023-08-07T03:18:15;7.03;;;4.80;;
79074;SDS011;68476;42.710;23.388;2023-08-07T03:20:40;6.40;;;4.68;;
79074;SDS011;68476;42.710;23.388;2023-08-07T03:23:06;7.13;;;4.38;;
79074;SDS011;68476;42.710;23.388;2023-08-07T03:25:32;6.22;;;4.90;;
79074;SDS011;68476;42.710;23.388;2023-08-07T03:27:57;5.68;;;4.63;;
79074;SDS011;68476;42.710;23.388;2023-08-07T03:30:22;6.13;;;4.95;;
79074;SDS011;68476;42.710;23.388;2023-08-07T03:32:48;6.75;;;4.97;;
79074;SDS011;68476;42.710;23.388;2023-08-07T03:35:13;9.73;;;5.70;;
79074;SDS011;68476;42.710;23.388;2023-08-07T03:37:38;5.97;;;4.85;;
79074;SDS011;68476;42.710;23.388;2023-08-07T03:40:04;5.22;;;4.72;;
79074;SDS011;68476;42.710;23.388;2023-08-07T03:42:30;7.03;;;4.85;;
79074;SDS011;68476;42.710;23.388;2023-08-07T03:44:55;5.88;;;4.45;;
79074;SDS011;68476;42.710;23.388;2023-08-07T03:47:21;8.98;;;4.90;;
79074;SDS011;68476;42.710;23.388;2023-08-07T03:49:46;6.25;;;4.80;;
79074;SDS011;68476;42.710;23.388;2023-08-07T03:52:11;5.63;;;4.35;;
79074;SDS011;68476;42.710;23.388;2023-08-07T03:54:37;5.55;;;4.57;;
79074;SDS011;68476;42.710;23.388;2023-08-07T03:57:02;5.65;;;4.72;;
79074;SDS011;68476;42.710;23.388;2023-08-07T03:59:28;5.68;;;4.55;;
79074;SDS011;68476;42.710;23.388;2023-08-07T04:01:53;6.45;;;4.57;;
79074;SDS011;68476;42.710;23.388;2023-08-07T04:04:19;5.82;;;4.03;;
79074;SDS011;68476;42.710;23.388;2023-08-07T04:06:44;5.03;;;4.50;;
79074;SDS011;68476;42.710;23.388;2023-08-07T04:09:09;6.07;;;4.50;;
79074;SDS011;68476;42.710;23.388;2023-08-07T04:11:35;7.30;;;4.65;;
79074;SDS011;68476;42.710;23.388;2023-08-07T04:14:01;6.30;;;4.80;;
79074;SDS011;68476;42.710;23.388;2023-08-07T04:16:26;5.82;;;4.53;;
79074;SDS011;68476;42.710;23.388;2023-08-07T04:18:52;5.28;;;4.15;;
79074;SDS011;68476;42.710;23.388;2023-08-07T04:21:17;6.30;;;4.93;;
79074;SDS011;68476;42.710;23.388;2023-08-07T04:23:43;6.85;;;5.60;;
79074;SDS011;68476;42.710;23.388;2023-08-07T04:26:08;7.20;;;5.95;;
79074;SDS011;68476;42.710;23.388;2023-08-07T04:28:33;6.15;;;5.50;;
79074;SDS011;68476;42.710;23.388;2023-08-07T04:30:59;6.47;;;5.55;;
79074;SDS011;68476;42.710;23.388;2023-08-07T04:33:24;8.98;;;5.68;;
79074;SDS011;68476;42.710;23.388;2023-08-07T04:35:50;8.52;;;4.90;;
79074;SDS011;68476;42.710;23.388;2023-08-07T04:38:15;7.78;;;5.10;;
79074;SDS011;68476;42.710;23.388;2023-08-07T04:40:48;5.97;;;4.55;;
79074;SDS011;68476;42.710;23.388;2023-08-07T04:43:18;7.40;;;4.63;;
79074;SDS011;68476;42.710;23.388;2023-08-07T04:45:47;5.43;;;4.68;;
79074;SDS011;68476;42.710;23.388;2023-08-07T04:48:13;5.32;;;4.38;;
79074;SDS011;68476;42.710;23.388;2023-08-07T04:50:39;5.32;;;4.20;;
79074;SDS011;68476;42.710;23.388;2023-08-07T04:53:04;5.28;;;4.68;;
79074;SDS011;68476;42.710;23.388;2023-08-07T04:55:30;5.72;;;4.15;;
79074;SDS011;68476;42.710;23.388;2023-08-07T04:57:57;7.03;;;4.18;;
79074;SDS011;68476;42.710;23.388;2023-08-07T05:00:23;6.03;;;3.90;;
79074;SDS011;68476;42.710;23.388;2023-08-07T05:02:49;5.90;;;3.42;;
79074;SDS011;68476;42.710;23.388;2023-08-07T05:05:15;4.20;;;3.70;;
79074;SDS011;68476;42.710;23.388;2023-08-07T05:07:40;6.00;;;4.63;;
79074;SDS011;68476;42.710;23.388;2023-08-07T05:10:06;4.07;;;3.40;;
79074;SDS011;68476;42.710;23.388;2023-08-07T05:12:34;3.83;;;3.40;;
79074;SDS011;68476;42.710;23.388;2023-08-07T05:15:00;3.63;;;3.15;;
79074;SDS011;68476;42.710;23.388;2023-08-07T05:17:25;3.33;;;2.80;;
79074;SDS011;68476;42.710;23.388;2023-08-07T05:19:51;4.07;;;3.08;;
79074;SDS011;68476;42.710;23.388;2023-08-07T05:22:16;5.28;;;3.25;;
79074;SDS011;68476;42.710;23.388;2023-08-07T05:24:42;4.53;;;3.03;;
79074;SDS011;68476;42.710;23.388;2023-08-07T05:27:09;3.58;;;2.95;;
79074;SDS011;68476;42.710;23.388;2023-08-07T05:29:34;9.15;;;3.40;;
79074;SDS011;68476;42.710;23.388;2023-08-07T05:32:08;3.70;;;3.30;;
79074;SDS011;68476;42.710;23.388;2023-08-07T05:34:33;3.75;;;3.15;;
79074;SDS011;68476;42.710;23.388;2023-08-07T05:36:59;3.75;;;3.20;;
79074;SDS011;68476;42.710;23.388;2023-08-07T05:39:24;6.03;;;2.83;;
79074;SDS011;68476;42.710;23.388;2023-08-07T05:41:49;3.30;;;2.80;;
79074;SDS011;68476;42.710;23.388;2023-08-07T05:44:16;3.92;;;3.05;;
79074;SDS011;68476;42.710;23.388;2023-08-07T05:46:41;3.75;;;3.05;;
79074;SDS011;68476;42.710;23.388;2023-08-07T05:49:06;4.10;;;3.70;;
79074;SDS011;68476;42.710;23.388;2023-08-07T05:51:32;4.40;;;4.00;;
79074;SDS011;68476;42.710;23.388;2023-08-07T05:53:57;4.28;;;3.85;;
79074;SDS011;68476;42.710;23.388;2023-08-07T05:56:22;4.65;;;3.22;;
79074;SDS011;68476;42.710;23.388;2023-08-07T05:58:48;4.15;;;2.92;;
79074;SDS011;68476;42.710;23.388;2023-08-07T06:01:13;3.30;;;2.85;;
79074;SDS011;68476;42.710;23.388;2023-08-07T06:03:41;3.33;;;2.90;;
79074;SDS011;68476;42.710;23.388;2023-08-07T06:06:07;4.40;;;3.10;;
79074;SDS011;68476;42.710;23.388;2023-08-07T06:08:32;3.47;;;2.50;;
79074;SDS011;68476;42.710;23.388;2023-08-07T06:10:58;3.50;;;2.90;;
79074;SDS011;68476;42.710;23.388;2023-08-07T06:13:23;3.67;;;2.83;;
79074;SDS011;68476;42.710;23.388;2023-08-07T06:15:48;3.63;;;2.90;;
79074;SDS011;68476;42.710;23.388;2023-08-07T06:18:14;3.22;;;2.92;;
79074;SDS011;68476;42.710;23.388;2023-08-07T06:20:39;4.60;;;3.03;;
79074;SDS011;68476;42.710;23.388;2023-08-07T06:23:05;5.03;;;3.30;;
79074;SDS011;68476;42.710;23.388;2023-08-07T06:25:30;4.22;;;3.40;;
79074;SDS011;68476;42.710;23.388;2023-08-07T06:27:55;3.67;;;2.78;;
79074;SDS011;68476;42.710;23.388;2023-08-07T06:30:21;4.68;;;2.72;;
79074;SDS011;68476;42.710;23.388;2023-08-07T06:32:46;3.17;;;2.55;;
79074;SDS011;68476;42.710;23.388;2023-08-07T06:35:12;4.40;;;2.30;;
79074;SDS011;68476;42.710;23.388;2023-08-07T06:37:37;3.00;;;2.40;;
79074;SDS011;68476;42.710;23.388;2023-08-07T06:40:02;3.70;;;2.55;;
79074;SDS011;68476;42.710;23.388;2023-08-07T06:42:28;3.58;;;2.88;;
79074;SDS011;68476;42.710;23.388;2023-08-07T06:44:53;4.00;;;2.58;;
79074;SDS011;68476;42.710;23.388;2023-08-07T06:47:19;4.95;;;2.70;;
79074;SDS011;68476;42.710;23.388;2023-08-07T06:49:44;3.53;;;2.90;;
79074;SDS011;68476;42.710;23.388;2023-08-07T06:52:09;3.03;;;2.70;;
79074;SDS011;68476;42.710;23.388;2023-08-07T06:54:35;2.92;;;2.60;;
79074;SDS011;68476;42.710;23.388;2023-08-07T06:57:00;2.97;;;2.50;;
79074;SDS011;68476;42.710;23.388;2023-08-07T06:59:26;3.92;;;2.15;;
79074;SDS011;68476;42.710;23.388;2023-08-07T07:01:51;3.55;;;2.40;;
79074;SDS011;68476;42.710;23.388;2023-08-07T07:04:16;5.13;;;2.75;;
79074;SDS011;68476;42.710;23.388;2023-08-07T07:06:43;2.30;;;1.90;;
79074;SDS011;68476;42.710;23.388;2023-08-07T07:09:08;2.55;;;2.00;;
79074;SDS011;68476;42.710;23.388;2023-08-07T07:11:33;2.53;;;1.88;;
79074;SDS011;68476;42.710;23.388;2023-08-07T07:13:59;2.40;;;1.90;;
79074;SDS011;68476;42.710;23.388;2023-08-07T07:16:25;2.33;;;1.83;;
79074;SDS011;68476;42.710;23.388;2023-08-07T07:18:50;2.60;;;2.00;;
79074;SDS011;68476;42.710;23.388;2023-08-07T07:21:16;2.90;;;2.10;;
79074;SDS011;68476;42.710;23.388;2023-08-07T07:23:42;2.88;;;2.10;;
79074;SDS011;68476;42.710;23.388;2023-08-07T07:26:07;2.67;;;1.70;;
79074;SDS011;68476;42.710;23.388;2023-08-07T07:28:33;2.42;;;1.60;;
79074;SDS011;68476;42.710;23.388;2023-08-07T07:30:59;2.20;;;1.80;;
79074;SDS011;68476;42.710;23.388;2023-08-07T07:33:24;2.97;;;2.22;;
79074;SDS011;68476;42.710;23.388;2023-08-07T07:35:50;3.47;;;2.03;;
79074;SDS011;68476;42.710;23.388;2023-08-07T07:38:15;3.15;;;2.03;;
79074;SDS011;68476;42.710;23.388;2023-08-07T07:40:41;3.33;;;1.92;;
79074;SDS011;68476;42.710;23.388;2023-08-07T07:43:06;2.83;;;1.75;;
79074;SDS011;68476;42.710;23.388;2023-08-07T07:45:32;4.20;;;2.20;;
79074;SDS011;68476;42.710;23.388;2023-08-07T07:48:04;3.60;;;2.00;;
79074;SDS011;68476;42.710;23.388;2023-08-07T07:50:31;5.38;;;2.08;;
79074;SDS011;68476;42.710;23.388;2023-08-07T07:52:56;2.60;;;2.00;;
79074;SDS011;68476;42.710;23.388;2023-08-07T07:55:22;2.33;;;1.80;;
79074;SDS011;68476;42.710;23.388;2023-08-07T07:57:47;2.13;;;1.80;;
79074;SDS011;68476;42.710;23.388;2023-08-07T08:00:12;2.85;;;1.90;;
79074;SDS011;68476;42.710;23.388;2023-08-07T08:02:41;2.55;;;2.03;;
79074;SDS011;68476;42.710;23.388;2023-08-07T08:05:08;2.72;;;2.10;;
79074;SDS011;68476;42.710;23.388;2023-08-07T08:07:36;3.40;;;2.05;;
79074;SDS011;68476;42.710;23.388;2023-08-07T08:10:06;2.33;;;1.73;;
79074;SDS011;68476;42.710;23.388;2023-08-07T08:12:32;3.78;;;1.58;;
79074;SDS011;68476;42.710;23.388;2023-08-07T08:14:57;5.05;;;2.03;;
79074;SDS011;68476;42.710;23.388;2023-08-07T08:17:23;3.30;;;1.75;;
79074;SDS011;68476;42.710;23.388;2023-08-07T08:19:48;2.53;;;1.70;;
79074;SDS011;68476;42.710;23.388;2023-08-07T08:22:14;2.30;;;1.83;;
79074;SDS011;68476;42.710;23.388;2023-08-07T08:24:39;2.47;;;1.60;;
79074;SDS011;68476;42.710;23.388;2023-08-07T08:27:04;2.47;;;1.90;;
79074;SDS011;68476;42.710;23.388;2023-08-07T08:29:30;4.63;;;1.80;;
79074;SDS011;68476;42.710;23.388;2023-08-07T08:31:56;2.60;;;1.67;;
79074;SDS011;68476;42.710;23.388;2023-08-07T08:34:21;2.60;;;1.58;;
79074;SDS011;68476;42.710;23.388;2023-08-07T08:36:47;2.30;;;1.38;;
79074;SDS011;68476;42.710;23.388;2023-08-07T08:39:13;2.83;;;1.60;;
79074;SDS011;68476;42.710;23.388;2023-08-07T08:41:39;2.78;;;1.50;;
79074;SDS011;68476;42.710;23.388;2023-08-07T08:44:06;2.30;;;1.73;;
79074;SDS011;68476;42.710;23.388;2023-08-07T08:46:32;2.30;;;1.52;;
79074;SDS011;68476;42.710;23.388;2023-08-07T08:48:59;4.00;;;1.63;;
79074;SDS011;68476;42.710;23.388;2023-08-07T08:51:26;2.72;;;1.65;;
79074;SDS011;68476;42.710;23.388;2023-08-07T08:53:53;3.10;;;1.50;;
79074;SDS011;68476;42.710;23.388;2023-08-07T08:56:21;1.45;;;1.20;;
79074;SDS011;68476;42.710;23.388;2023-08-07T08:58:47;2.40;;;1.60;;
79074;SDS011;68476;42.710;23.388;2023-08-07T09:01:13;2.00;;;1.55;;
79074;SDS011;68476;42.710;23.388;2023-08-07T09:03:40;2.20;;;1.50;;
79074;SDS011;68476;42.710;23.388;2023-08-07T09:06:06;1.83;;;1.50;;
79074;SDS011;68476;42.710;23.388;2023-08-07T09:08:32;1.90;;;1.40;;
79074;SDS011;68476;42.710;23.388;2023-08-07T09:10:59;2.03;;;1.48;;
79074;SDS011;68476;42.710;23.388;2023-08-07T09:13:25;2.38;;;1.50;;
79074;SDS011;68476;42.710;23.388;2023-08-07T09:15:53;2.47;;;1.40;;
79074;SDS011;68476;42.710;23.388;2023-08-07T09:18:19;3.08;;;1.60;;
79074;SDS011;68476;42.710;23.388;2023-08-07T09:20:47;2.88;;;1.50;;
79074;SDS011;68476;42.710;23.388;2023-08-07T09:23:14;2.00;;;1.50;;
79074;SDS011;68476;42.710;23.388;2023-08-07T09:25:41;2.30;;;1.50;;
79074;SDS011;68476;42.710;23.388;2023-08-07T09:28:07;2.75;;;1.50;;
79074;SDS011;68476;42.710;23.388;2023-08-07T09:30:34;2.22;;;1.58;;
79074;SDS011;68476;42.710;23.388;2023-08-07T09:33:00;1.80;;;1.35;;
79074;SDS011;68476;42.710;23.388;2023-08-07T09:35:27;2.75;;;1.40;;
79074;SDS011;68476;42.710;23.388;2023-08-07T09:37:56;2.75;;;1.60;;
79074;SDS011;68476;42.710;23.388;2023-08-07T09:40:25;1.98;;;1.48;;
79074;SDS011;68476;42.710;23.388;2023-08-07T09:42:52;3.45;;;1.80;;
79074;SDS011;68476;42.710;23.388;2023-08-07T09:45:25;2.30;;;1.48;;
79074;SDS011;68476;42.710;23.388;2023-08-07T09:47:58;2.03;;;1.40;;
79074;SDS011;68476;42.710;23.388;2023-08-07T09:50:31;2.78;;;1.58;;
79074;SDS011;68476;42.710;23.388;2023-08-07T09:52:57;2.00;;;1.50;;
79074;SDS011;68476;42.710;23.388;2023-08-07T09:55:23;1.95;;;1.58;;
79074;SDS011;68476;42.710;23.388;2023-08-07T09:57:50;2.55;;;1.80;;
79074;SDS011;68476;42.710;23.388;2023-08-07T10:00:16;2.67;;;1.90;;
79074;SDS011;68476;42.710;23.388;2023-08-07T10:02:48;2.58;;;1.73;;
79074;SDS011;68476;42.710;23.388;2023-08-07T10:05:15;2.33;;;1.73;;
79074;SDS011;68476;42.710;23.388;2023-08-07T10:07:41;2.35;;;1.70;;
79074;SDS011;68476;42.710;23.388;2023-08-07T10:10:07;2.38;;;1.70;;
79074;SDS011;68476;42.710;23.388;2023-08-07T10:12:35;3.13;;;1.70;;
79074;SDS011;68476;42.710;23.388;2023-08-07T10:15:02;5.38;;;1.73;;
79074;SDS011;68476;42.710;23.388;2023-08-07T10:17:28;4.72;;;1.90;;
79074;SDS011;68476;42.710;23.388;2023-08-07T10:19:55;3.00;;;1.60;;
79074;SDS011;68476;42.710;23.388;2023-08-07T10:22:22;3.35;;;1.88;;
79074;SDS011;68476;42.710;23.388;2023-08-07T10:24:51;2.70;;;1.70;;
79074;SDS011;68476;42.710;23.388;2023-08-07T10:27:18;4.50;;;1.90;;
79074;SDS011;68476;42.710;23.388;2023-08-07T10:29:48;3.67;;;1.88;;
79074;SDS011;68476;42.710;23.388;2023-08-07T10:32:17;3.03;;;1.90;;
79074;SDS011;68476;42.710;23.388;2023-08-07T10:34:51;3.40;;;1.90;;
79074;SDS011;68476;42.710;23.388;2023-08-07T10:37:32;5.00;;;2.10;;
79074;SDS011;68476;42.710;23.388;2023-08-07T10:40:05;2.88;;;1.83;;
79074;SDS011;68476;42.710;23.388;2023-08-07T10:45:23;3.55;;;1.83;;
79074;SDS011;68476;42.710;23.388;2023-08-07T10:47:56;2.65;;;1.90;;
79074;SDS011;68476;42.710;23.388;2023-08-07T10:50:34;2.35;;;1.92;;
79074;SDS011;68476;42.710;23.388;2023-08-07T10:53:34;2.40;;;2.00;;
79074;SDS011;68476;42.710;23.388;2023-08-07T10:56:05;4.65;;;1.92;;
79074;SDS011;68476;42.710;23.388;2023-08-07T10:58:37;4.55;;;2.30;;
79074;SDS011;68476;42.710;23.388;2023-08-07T11:01:17;3.05;;;2.08;;
79074;SDS011;68476;42.710;23.388;2023-08-07T11:03:53;3.47;;;1.80;;
79074;SDS011;68476;42.710;23.388;2023-08-07T11:06:24;3.35;;;1.80;;
79074;SDS011;68476;42.710;23.388;2023-08-07T11:08:53;3.22;;;2.00;;
79074;SDS011;68476;42.710;23.388;2023-08-07T11:11:19;3.10;;;1.73;;
79074;SDS011;68476;42.710;23.388;2023-08-07T11:13:45;1.90;;;1.70;;
79074;SDS011;68476;42.710;23.388;2023-08-07T11:16:11;3.10;;;1.63;;
79074;SDS011;68476;42.710;23.388;2023-08-07T11:18:37;3.10;;;1.77;;
79074;SDS011;68476;42.710;23.388;2023-08-07T11:21:10;2.30;;;1.70;;
79074;SDS011;68476;42.710;23.388;2023-08-07T11:23:39;2.05;;;1.63;;
79074;SDS011;68476;42.710;23.388;2023-08-07T11:28:30;2.20;;;1.77;;
79074;SDS011;68476;42.710;23.388;2023-08-07T11:30:56;7.50;;;2.10;;
79074;SDS011;68476;42.710;23.388;2023-08-07T11:33:25;4.65;;;1.80;;
79074;SDS011;68476;42.710;23.388;2023-08-07T11:35:52;2.50;;;1.67;;
79074;SDS011;68476;42.710;23.388;2023-08-07T11:38:31;3.00;;;1.70;;
79074;SDS011;68476;42.710;23.388;2023-08-07T11:41:04;2.30;;;1.73;;
79074;SDS011;68476;42.710;23.388;2023-08-07T11:43:31;2.95;;;1.70;;
79074;SDS011;68476;42.710;23.388;2023-08-07T11:45:57;2.60;;;1.80;;
79074;SDS011;68476;42.710;23.388;2023-08-07T11:48:27;2.03;;;1.63;;
79074;SDS011;68476;42.710;23.388;2023-08-07T11:50:53;3.10;;;1.80;;
79074;SDS011;68476;42.710;23.388;2023-08-07T11:53:20;3.25;;;1.70;;
79074;SDS011;68476;42.710;23.388;2023-08-07T11:55:53;2.53;;;1.80;;
79074;SDS011;68476;42.710;23.388;2023-08-07T11:58:20;2.58;;;2.03;;
79074;SDS011;68476;42.710;23.388;2023-08-07T12:00:46;4.07;;;1.90;;
79074;SDS011;68476;42.710;23.388;2023-08-07T12:05:50;2.00;;;1.60;;
79074;SDS011;68476;42.710;23.388;2023-08-07T12:08:15;2.20;;;1.70;;
79074;SDS011;68476;42.710;23.388;2023-08-07T12:10:41;3.28;;;1.90;;
79074;SDS011;68476;42.710;23.388;2023-08-07T12:13:11;3.08;;;1.90;;
79074;SDS011;68476;42.710;23.388;2023-08-07T12:15:37;5.15;;;1.90;;
79074;SDS011;68476;42.710;23.388;2023-08-07T12:18:02;3.10;;;1.80;;
79074;SDS011;68476;42.710;23.388;2023-08-07T12:20:28;2.55;;;1.70;;
79074;SDS011;68476;42.710;23.388;2023-08-07T12:22:54;2.72;;;1.70;;
79074;SDS011;68476;42.710;23.388;2023-08-07T12:25:19;2.97;;;1.60;;
79074;SDS011;68476;42.710;23.388;2023-08-07T12:27:45;2.10;;;1.70;;
79074;SDS011;68476;42.710;23.388;2023-08-07T12:30:12;2.10;;;1.73;;
79074;SDS011;68476;42.710;23.388;2023-08-07T12:32:38;3.40;;;1.90;;
79074;SDS011;68476;42.710;23.388;2023-08-07T12:35:04;5.32;;;1.98;;
79074;SDS011;68476;42.710;23.388;2023-08-07T12:37:33;4.35;;;2.13;;
79074;SDS011;68476;42.710;23.388;2023-08-07T12:39:59;3.10;;;1.90;;
79074;SDS011;68476;42.710;23.388;2023-08-07T12:42:24;2.75;;;1.90;;
79074;SDS011;68476;42.710;23.388;2023-08-07T12:44:50;5.47;;;2.05;;
79074;SDS011;68476;42.710;23.388;2023-08-07T12:47:15;2.92;;;1.90;;
79074;SDS011;68476;42.710;23.388;2023-08-07T12:49:41;2.78;;;2.05;;
79074;SDS011;68476;42.710;23.388;2023-08-07T12:52:06;4.15;;;2.00;;
79074;SDS011;68476;42.710;23.388;2023-08-07T12:54:32;3.28;;;1.88;;
79074;SDS011;68476;42.710;23.388;2023-08-07T12:56:57;2.28;;;1.80;;
79074;SDS011;68476;42.710;23.388;2023-08-07T12:59:23;3.88;;;2.00;;
79074;SDS011;68476;42.710;23.388;2023-08-07T13:01:48;3.05;;;2.08;;
79074;SDS011;68476;42.710;23.388;2023-08-07T13:04:14;5.68;;;2.22;;
79074;SDS011;68476;42.710;23.388;2023-08-07T13:06:40;2.55;;;2.00;;
79074;SDS011;68476;42.710;23.388;2023-08-07T13:09:06;2.85;;;2.00;;
79074;SDS011;68476;42.710;23.388;2023-08-07T13:11:32;3.30;;;2.10;;
79074;SDS011;68476;42.710;23.388;2023-08-07T13:14:00;4.57;;;1.90;;
79074;SDS011;68476;42.710;23.388;2023-08-07T13:16:25;2.50;;;2.00;;
79074;SDS011;68476;42.710;23.388;2023-08-07T13:18:50;3.42;;;2.10;;
79074;SDS011;68476;42.710;23.388;2023-08-07T13:21:16;2.60;;;1.95;;
79074;SDS011;68476;42.710;23.388;2023-08-07T13:23:41;3.55;;;2.00;;
79074;SDS011;68476;42.710;23.388;2023-08-07T13:26:07;4.15;;;2.00;;
79074;SDS011;68476;42.710;23.388;2023-08-07T13:28:33;3.40;;;2.00;;
79074;SDS011;68476;42.710;23.388;2023-08-07T13:30:58;3.65;;;2.20;;
79074;SDS011;68476;42.710;23.388;2023-08-07T13:33:23;3.78;;;1.90;;
79074;SDS011;68476;42.710;23.388;2023-08-07T13:35:49;4.10;;;1.92;;
79074;SDS011;68476;42.710;23.388;2023-08-07T13:38:15;2.70;;;1.80;;
79074;SDS011;68476;42.710;23.388;2023-08-07T13:40:43;2.75;;;1.98;;
79074;SDS011;68476;42.710;23.388;2023-08-07T13:43:09;3.33;;;1.90;;
79074;SDS011;68476;42.710;23.388;2023-08-07T13:45:35;3.92;;;2.25;;
79074;SDS011;68476;42.710;23.388;2023-08-07T13:48:00;6.75;;;2.20;;
79074;SDS011;68476;42.710;23.388;2023-08-07T13:50:27;2.22;;;1.80;;
79074;SDS011;68476;42.710;23.388;2023-08-07T13:52:52;4.05;;;2.10;;
79074;SDS011;68476;42.710;23.388;2023-08-07T13:55:18;2.85;;;1.80;;
79074;SDS011;68476;42.710;23.388;2023-08-07T13:57:43;3.10;;;1.70;;
79074;SDS011;68476;42.710;23.388;2023-08-07T14:00:09;2.78;;;2.00;;
79074;SDS011;68476;42.710;23.388;2023-08-07T14:02:36;2.80;;;2.00;;
79074;SDS011;68476;42.710;23.388;2023-08-07T14:05:01;2.50;;;2.10;;
79074;SDS011;68476;42.710;23.388;2023-08-07T14:07:27;3.50;;;2.30;;
79074;SDS011;68476;42.710;23.388;2023-08-07T14:09:53;3.47;;;2.03;;
79074;SDS011;68476;42.710;23.388;2023-08-07T14:12:18;2.70;;;2.33;;
79074;SDS011;68476;42.710;23.388;2023-08-07T14:14:44;2.90;;;2.50;;
79074;SDS011;68476;42.710;23.388;2023-08-07T14:17:09;3.03;;;1.98;;
79074;SDS011;68476;42.710;23.388;2023-08-07T14:19:34;4.15;;;2.40;;
79074;SDS011;68476;42.710;23.388;2023-08-07T14:22:00;2.55;;;2.10;;
79074;SDS011;68476;42.710;23.388;2023-08-07T14:24:25;4.18;;;2.15;;
79074;SDS011;68476;42.710;23.388;2023-08-07T14:26:51;2.80;;;2.10;;
79074;SDS011;68476;42.710;23.388;2023-08-07T14:29:16;3.63;;;2.08;;
79074;SDS011;68476;42.710;23.388;2023-08-07T14:31:42;3.80;;;2.15;;
79074;SDS011;68476;42.710;23.388;2023-08-07T14:34:07;2.95;;;1.90;;
79074;SDS011;68476;42.710;23.388;2023-08-07T14:36:32;2.17;;;1.80;;
79074;SDS011;68476;42.710;23.388;2023-08-07T14:38:58;3.03;;;2.08;;